Time;durP1;ratioP1;P1;durP2;ratioP2;P2;SDS_P1;SDS_P2;PMS_P1;PMS_P2;Temp;Humidity;BMP_temperature;BMP_pressure;BME280_temperature;BME280_humidity;BME280_pressure;Samples;Min_cycle;Max_cycle;Signal;HPM_P1;HPM_P2
2023/03/01 00:01:31;;;;;;;0.00;0.00;;;;;;;8.91;56.22;103226.97;7342124;19;20878;-55
2023/03/01 00:03:58;;;;;;;0.00;0.00;;;;;;;8.93;56.55;103221.81;7346607;19;20018;-55
2023/03/01 00:06:25;;;;;;;0.00;0.00;;;;;;;8.84;56.95;103197.28;7347381;19;20017;-55
2023/03/01 00:08:50;;;;;;;0.00;0.00;;;;;;;8.98;57.14;103215.88;7339262;19;20038;-55
2023/03/01 00:11:17;;;;;;;0.00;0.00;;;;;;;8.99;56.91;103217.63;7352511;19;20014;-55
2023/03/01 00:13:44;;;;;;;0.00;0.00;;;;;;;8.99;56.92;103209.81;7349735;19;20022;-56
2023/03/01 00:16:16;;;;;;;0.00;0.00;;;;;;;9.01;56.74;103213.31;7352414;19;20070;-55
2023/03/01 00:18:42;;;;;;;0.00;0.00;;;;;;;8.58;57.14;103134.13;7353465;19;20233;-53
2023/03/01 00:21:07;;;;;;;0.00;0.00;;;;;;;8.97;57.10;103198.50;7349837;19;23019;-55
2023/03/01 00:23:37;;;;;;;0.03;0.03;;;;;;;9.02;57.77;103199.47;7353072;19;20399;-54
2023/03/01 00:26:07;;;;;;;0.00;0.00;;;;;;;9.01;57.88;103202.91;7349586;19;20018;-55
2023/03/01 00:28:32;;;;;;;0.00;0.00;;;;;;;9.03;58.33;103203.84;7348990;19;20812;-56
2023/03/01 00:31:18;;;;;;;0.00;0.00;;;;;;;9.03;57.69;103196.03;7353524;19;20018;-55
2023/03/01 00:33:44;;;;;;;0.00;0.00;;;;;;;9.05;58.24;103204.75;7352170;19;20014;-56
2023/03/01 00:36:12;;;;;;;0.00;0.00;;;;;;;9.01;58.61;103197.69;7348045;19;20902;-56
2023/03/01 00:38:39;;;;;;;0.00;0.00;;;;;;;9.08;59.01;103203.94;7345446;19;20025;-55
2023/03/01 00:41:10;;;;;;;0.05;0.05;;;;;;;9.12;58.67;103197.06;7348333;19;20021;-56
2023/03/01 00:43:38;;;;;;;0.00;0.00;;;;;;;9.10;58.88;103203.13;7350878;19;20529;-55
2023/03/01 00:46:06;;;;;;;0.00;0.00;;;;;;;9.12;58.94;103200.53;7350587;19;20019;-55
2023/03/01 00:48:32;;;;;;;;;;;;;;;9.18;56.99;103190.28;7345610;19;20006;-56
2023/03/01 00:51:04;;;;;;;0.00;0.00;;;;;;;9.17;58.46;103182.41;7350680;19;20434;-55
2023/03/01 00:53:29;;;;;;;0.00;0.00;;;;;;;8.99;58.75;103162.03;7344985;19;20556;-56
2023/03/01 00:55:57;;;;;;;0.10;0.10;;;;;;;9.16;58.92;103188.47;7351838;19;20013;-54
2023/03/01 00:58:22;;;;;;;0.00;0.00;;;;;;;9.15;58.77;103197.16;7346198;19;20017;-55
2023/03/01 01:00:47;;;;;;;0.00;0.00;;;;;;;9.16;59.08;103193.69;7351058;19;20010;-55
2023/03/01 01:03:13;;;;;;;0.00;0.00;;;;;;;9.17;58.95;103188.50;7348494;19;20122;-54
2023/03/01 01:05:38;;;;;;;0.03;0.03;;;;;;;9.18;58.38;103194.63;7349604;19;20002;-56
2023/03/01 01:08:04;;;;;;;0.10;0.10;;;;;;;9.18;58.72;103190.28;7352290;19;20006;-55
2023/03/01 01:10:29;;;;;;;0.00;0.00;;;;;;;8.99;58.56;103157.69;7346756;19;21066;-55
2023/03/01 01:12:55;;;;;;;0.10;0.10;;;;;;;9.14;58.73;103182.34;7351865;19;20027;-54
2023/03/01 01:15:20;;;;;;;0.00;0.00;;;;;;;9.18;58.45;103190.28;7349431;19;20014;-56
2023/03/01 01:17:45;;;;;;;0.00;0.00;;;;;;;9.08;58.44;103163.13;7349149;19;20051;-55
2023/03/01 01:20:12;;;;;;;0.03;0.03;;;;;;;9.20;57.97;103187.69;7348120;19;20025;-55
2023/03/01 01:22:37;;;;;;;0.00;0.00;;;;;;;9.16;57.63;103176.31;7352653;19;20558;-56
2023/03/01 01:25:03;;;;;;;0.00;0.00;;;;;;;9.21;57.79;103189.47;7346595;19;20613;-54
2023/03/01 01:27:29;;;;;;;0.00;0.00;;;;;;;9.12;57.71;103178.81;7347593;19;20491;-55
2023/03/01 01:29:55;;;;;;;0.10;0.10;;;;;;;9.17;58.04;103185.00;7345816;19;20010;-56
2023/03/01 01:32:20;;;;;;;0.03;0.03;;;;;;;9.22;58.03;103191.22;7349003;19;20821;-55
2023/03/01 01:34:46;;;;;;;0.08;0.08;;;;;;;9.21;58.03;103189.47;7349052;19;20003;-55
2023/03/01 01:37:11;;;;;;;0.00;0.00;;;;;;;9.23;58.17;103182.56;7348937;19;20029;-55
2023/03/01 01:39:37;;;;;;;0.10;0.10;;;;;;;9.23;58.33;103188.66;7349296;19;20606;-55
2023/03/01 01:42:02;;;;;;;0.00;0.00;;;;;;;9.23;58.29;103185.19;7347664;19;20006;-56
2023/03/01 01:44:29;;;;;;;0.00;0.00;;;;;;;9.22;58.34;103180.78;7351970;19;20482;-55
2023/03/01 01:47:00;;;;;;;0.10;0.10;;;;;;;9.24;58.15;103179.13;7343851;19;20006;-55
2023/03/01 01:49:35;;;;;;;0.00;0.00;;;;;;;9.24;58.22;103176.50;7350129;19;20018;-54
2023/03/01 01:52:17;;;;;;;0.10;0.10;;;;;;;9.21;58.29;103166.00;7344843;19;20506;-55
2023/03/01 01:54:55;;;;;;;0.00;0.00;;;;;;;9.25;57.97;103186.09;7348985;19;20371;-55
2023/03/01 01:57:27;;;;;;;0.00;0.00;;;;;;;9.27;57.49;103158.31;7348937;19;20013;-55
2023/03/01 01:59:59;;;;;;;0.00;0.00;;;;;;;9.24;57.61;103163.47;7345679;19;20007;-55
2023/03/01 02:02:25;;;;;;;0.00;0.00;;;;;;;9.20;57.05;103152.09;7350458;19;20038;-56
2023/03/01 02:05:03;;;;;;;0.08;0.08;;;;;;;9.19;56.87;103139.03;7346397;19;20043;-56
2023/03/01 02:07:29;;;;;;;0.00;0.00;;;;;;;9.23;56.92;103146.06;7348533;19;20366;-55
2023/03/01 02:09:55;;;;;;;0.00;0.00;;;;;;;9.20;56.85;103135.56;7347201;19;20037;-56
2023/03/01 02:12:23;;;;;;;0.00;0.00;;;;;;;9.22;57.09;103133.84;7345333;19;20014;-55
2023/03/01 02:14:49;;;;;;;0.00;0.00;;;;;;;9.17;56.74;103123.31;7346801;19;20043;-55
2023/03/01 02:17:16;;;;;;;0.03;0.03;;;;;;;9.09;56.95;103107.53;7347209;19;20701;-56
2023/03/01 02:20:16;;;;;;;0.00;0.00;;;;;;;9.23;56.86;103126.09;7344788;19;20010;-56
2023/03/01 02:22:44;;;;;;;0.00;0.00;;;;;;;9.21;57.17;103119.06;7247788;19;2004140;-55
2023/03/01 02:25:18;;;;;;;0.08;0.08;;;;;;;9.21;56.86;103121.69;7347209;19;21193;-55
2023/03/01 02:27:44;;;;;;;0.00;0.00;;;;;;;9.19;56.73;103123.38;7347749;19;20094;-54
2023/03/01 02:30:12;;;;;;;0.00;0.00;;;;;;;9.17;57.03;103114.63;7347810;19;20019;-55
2023/03/01 02:32:41;;;;;;;;;;;;;;;9.23;56.57;103114.78;7349631;19;20106;-56
2023/03/01 02:35:17;;;;;;;0.00;0.00;;;;;;;9.18;57.17;103108.59;7344344;19;19922;-55
2023/03/01 02:37:44;;;;;;;0.00;0.00;;;;;;;9.20;57.05;103114.72;7348173;19;20017;-55
2023/03/01 02:40:16;;;;;;;0.00;0.00;;;;;;;9.20;56.85;103104.28;7348321;19;20437;-54
2023/03/01 02:42:55;;;;;;;0.00;0.00;;;;;;;9.14;56.95;103094.59;7353655;19;21183;-55
2023/03/01 02:45:21;;;;;;;0.00;0.00;;;;;;;9.17;57.26;103104.19;7353116;19;20030;-55
2023/03/01 02:47:47;;;;;;;0.03;0.03;;;;;;;9.14;56.94;103091.13;7353881;19;22757;-55
2023/03/01 02:50:55;;;;;;;0.00;0.00;;;;;;;9.19;56.74;103097.31;7354037;19;20021;-55
2023/03/01 02:53:57;;;;;;;0.10;0.10;;;;;;;9.18;56.72;103092.94;7249310;19;2004057;-54
2023/03/01 02:56:23;;;;;;;0.08;0.08;;;;;;;9.17;57.04;103083.34;7248924;19;2004010;-55
2023/03/01 02:58:51;;;;;;;0.10;0.10;;;;;;;9.13;57.55;103076.34;7347692;19;20095;-55
2023/03/01 03:01:18;;;;;;;0.00;0.00;;;;;;;9.15;57.36;103079.84;7360009;19;20017;-55
2023/03/01 03:03:43;;;;;;;0.00;0.00;;;;;;;9.17;57.21;103079.00;7360758;19;20765;-53
2023/03/01 03:06:09;;;;;;;0.10;0.10;;;;;;;9.15;57.27;103079.84;7353052;19;20003;-56
2023/03/01 03:08:35;;;;;;;0.00;0.00;;;;;;;9.17;57.07;103079.00;7360388;19;20299;-55
2023/03/01 03:11:00;;;;;;;0.00;0.00;;;;;;;9.15;57.50;103069.41;7358609;19;20074;-56
2023/03/01 03:13:28;;;;;;;0.00;0.00;;;;;;;9.17;57.80;103072.91;7355524;19;20023;-55
2023/03/01 03:15:55;;;;;;;0.00;0.00;;;;;;;9.18;57.82;103069.50;7357523;19;20526;-56
2023/03/01 03:18:25;;;;;;;0.00;0.00;;;;;;;9.17;57.56;103072.91;7356569;19;20047;-56
2023/03/01 03:20:52;;;;;;;0.00;0.00;;;;;;;9.17;57.81;103067.72;7359582;19;20033;-55
2023/03/01 03:23:19;;;;;;;0.10;0.10;;;;;;;9.10;57.76;103056.28;7359534;19;20010;-56
2023/03/01 03:25:44;;;;;;;0.00;0.00;;;;;;;9.14;57.53;103063.31;7358371;19;20047;-57
2023/03/01 03:28:10;;;;;;;0.00;0.00;;;;;;;9.14;57.53;103062.44;7355739;19;20110;-56
2023/03/01 03:30:38;;;;;;;0.00;0.00;;;;;;;9.14;57.61;103057.22;7356537;19;20087;-56
2023/03/01 03:33:05;;;;;;;0.00;0.00;;;;;;;9.12;57.41;103058.91;7359395;19;20774;-55
2023/03/01 03:35:49;;;;;;;0.00;0.00;;;;;;;9.13;56.72;103065.91;7356319;19;20014;-56
2023/03/01 03:38:17;;;;;;;0.00;0.00;;;;;;;9.02;57.13;103053.53;7358205;19;20017;-56
2023/03/01 03:40:50;;;;;;;0.00;0.00;;;;;;;9.11;57.15;103065.84;7356539;19;20010;-55
2023/03/01 03:43:20;;;;;;;0.00;0.00;;;;;;;9.08;56.73;103064.06;7356698;19;20278;-55
2023/03/01 03:45:47;;;;;;;0.00;0.00;;;;;;;9.05;57.07;103064.00;7355891;19;20094;-55
2023/03/01 03:48:13;;;;;;;0.00;0.00;;;;;;;8.92;56.80;103050.66;7360347;19;20627;-55
2023/03/01 03:50:39;;;;;;;0.00;0.00;;;;;;;9.02;56.61;103069.16;7359484;19;20356;-55
2023/03/01 03:53:08;;;;;;;0.00;0.00;;;;;;;9.00;56.62;103065.63;7354381;19;20751;-57
2023/03/01 03:55:33;;;;;;;0.00;0.00;;;;;;;9.04;56.32;103072.66;7361757;19;20571;-56
2023/03/01 03:58:06;;;;;;;0.00;0.00;;;;;;;8.94;56.61;103055.06;7345798;19;20090;-54
2023/03/01 04:00:36;;;;;;;0.00;0.00;;;;;;;9.00;56.25;103067.34;7359547;19;20007;-56
2023/03/01 04:03:01;;;;;;;0.00;0.00;;;;;;;9.03;56.51;103062.22;7357550;19;20589;-56
2023/03/01 04:05:27;;;;;;;0.00;0.00;;;;;;;8.96;56.51;103053.38;7333518;19;20042;-55
2023/03/01 04:08:00;;;;;;;0.00;0.00;;;;;;;8.99;56.22;103055.19;7359582;19;20007;-55
2023/03/01 04:10:32;;;;;;;0.00;0.00;;;;;;;9.02;56.14;103053.53;7348933;19;20036;-55
2023/03/01 04:12:58;;;;;;;0.00;0.00;;;;;;;9.02;56.20;103056.13;7356076;19;20017;-56
2023/03/01 04:15:26;;;;;;;0.00;0.00;;;;;;;8.95;56.59;103041.19;7358282;19;20377;-56
2023/03/01 04:17:55;;;;;;;0.00;0.00;;;;;;;9.03;56.13;103050.06;7351157;19;20002;-55
2023/03/01 04:20:25;;;;;;;0.03;0.03;;;;;;;9.03;56.18;103054.41;7341200;19;20006;-56
2023/03/01 04:23:15;;;;;;;0.00;0.00;;;;;;;9.04;55.96;103051.81;7358795;19;20018;-56
2023/03/01 04:25:54;;;;;;;0.00;0.00;;;;;;;9.04;56.07;103050.94;7358409;19;20021;-55
2023/03/01 04:28:47;;;;;;;0.00;0.00;;;;;;;9.04;55.94;103044.00;7356682;19;20014;-56
2023/03/01 04:31:18;;;;;;;0.00;0.00;;;;;;;8.96;56.20;103027.31;7255406;19;2004268;-54
2023/03/01 04:33:55;;;;;;;0.00;0.00;;;;;;;9.03;56.25;103038.78;7359794;19;20017;-55
2023/03/01 04:36:23;;;;;;;0.10;0.10;;;;;;;8.97;56.07;103023.88;7352004;19;20010;-56
2023/03/01 04:38:49;;;;;;;0.00;0.00;;;;;;;8.73;56.26;102986.88;7357601;19;20007;-54
2023/03/01 04:41:17;;;;;;;0.00;0.00;;;;;;;9.01;56.25;103030.03;7357119;19;20002;-54
2023/03/01 04:43:43;;;;;;;0.00;0.00;;;;;;;8.99;56.65;103027.38;7357688;19;20006;-54
2023/03/01 04:46:12;;;;;;;0.00;0.00;;;;;;;9.01;56.41;103028.28;7360431;19;20031;-54
2023/03/01 04:48:38;;;;;;;0.00;0.00;;;;;;;9.00;56.50;103029.16;7354945;19;20010;-55
2023/03/01 04:51:05;;;;;;;0.00;0.00;;;;;;;8.72;56.59;102979.91;7356869;19;20121;-57
2023/03/01 04:53:32;;;;;;;0.00;0.00;;;;;;;8.97;56.68;103018.66;7358388;19;20431;-55
2023/03/01 04:55:58;;;;;;;0.00;0.00;;;;;;;9.00;56.96;103023.94;7359615;19;20011;-56
2023/03/01 04:58:25;;;;;;;0.03;0.03;;;;;;;8.95;56.59;103011.66;7357557;19;20918;-55
2023/03/01 05:00:51;;;;;;;0.00;0.00;;;;;;;8.97;56.65;103010.84;7356606;19;20641;-55
2023/03/01 05:03:18;;;;;;;0.10;0.10;;;;;;;9.01;56.91;103014.38;7355953;19;20014;-55
2023/03/01 05:05:45;;;;;;;0.00;0.00;;;;;;;9.01;56.36;103010.03;7356502;19;20006;-54
2023/03/01 05:08:17;;;;;;;0.10;0.10;;;;;;;8.90;56.89;102990.72;7359162;19;20101;-53
2023/03/01 05:10:47;;;;;;;0.00;0.00;;;;;;;9.02;56.60;103006.63;7356687;19;20035;-55
2023/03/01 05:13:20;;;;;;;0.08;0.08;;;;;;;8.89;56.41;102991.56;7357253;19;20014;-56
2023/03/01 05:15:56;;;;;;;0.10;0.10;;;;;;;8.94;56.19;102997.75;7359312;19;20117;-55
2023/03/01 05:18:25;;;;;;;0.10;0.10;;;;;;;9.03;56.13;103008.38;7357499;19;20042;-55
2023/03/01 05:20:51;;;;;;;0.00;0.00;;;;;;;8.58;56.20;102933.59;7356346;19;20025;-56
2023/03/01 05:23:18;;;;;;;0.00;0.00;;;;;;;8.93;56.49;102990.78;7355653;19;20010;-53
2023/03/01 05:25:44;;;;;;;0.00;0.00;;;;;;;8.96;56.58;103000.38;7357635;19;20699;-55
2023/03/01 05:28:13;;;;;;;0.08;0.08;;;;;;;9.03;56.74;103000.56;7357963;19;22290;-56
2023/03/01 05:30:39;;;;;;;0.03;0.03;;;;;;;8.88;56.58;102968.97;7356605;19;20024;-55
2023/03/01 05:33:06;;;;;;;0.10;0.10;;;;;;;9.01;56.31;102989.19;7357383;19;20018;-56
2023/03/01 05:35:33;;;;;;;0.00;0.00;;;;;;;9.02;56.30;102996.19;7357437;19;20132;-55
2023/03/01 05:37:58;;;;;;;0.00;0.00;;;;;;;8.98;56.27;102994.38;7354073;19;20033;-56
2023/03/01 05:40:24;;;;;;;0.00;0.00;;;;;;;8.92;56.28;102986.44;7357253;19;20010;-55
2023/03/01 05:42:56;;;;;;;0.00;0.00;;;;;;;9.04;56.49;102999.69;7355678;19;20022;-56
2023/03/01 05:45:23;;;;;;;0.00;0.00;;;;;;;9.02;56.44;103000.50;7354712;19;20522;-54
2023/03/01 05:47:49;;;;;;;0.00;0.00;;;;;;;8.66;56.48;102927.66;7358640;19;20278;-56
2023/03/01 05:50:23;;;;;;;0.00;0.00;;;;;;;9.05;56.23;103005.78;7356683;19;20082;-55
2023/03/01 05:52:59;;;;;;;0.00;0.00;;;;;;;8.65;55.91;102931.13;7357404;19;20352;-56
2023/03/01 05:55:24;;;;;;;0.10;0.10;;;;;;;9.02;56.40;103011.84;7354934;19;20007;-55
2023/03/01 05:57:50;;;;;;;0.00;0.00;;;;;;;8.93;56.93;102996.00;7353636;19;20017;-54
2023/03/01 06:00:18;;;;;;;0.00;0.00;;;;;;;9.03;56.74;103008.38;7357213;19;20074;-55
2023/03/01 06:02:44;;;;;;;;;;;;;;;9.06;56.33;103012.75;7355658;19;20003;-55
2023/03/01 06:05:11;;;;;;;0.00;0.00;;;;;;;9.02;56.87;103013.53;7355468;19;20702;-55
2023/03/01 06:07:37;;;;;;;0.00;0.00;;;;;;;8.87;57.15;102993.28;7353950;19;20875;-56
2023/03/01 06:10:04;;;;;;;0.00;0.00;;;;;;;9.00;57.21;103017.84;7357352;19;20010;-56
2023/03/01 06:12:31;;;;;;;0.00;0.00;;;;;;;8.94;56.88;103013.38;7353220;19;20337;-56
2023/03/01 06:14:56;;;;;;;0.00;0.00;;;;;;;8.95;56.83;103015.13;7356442;19;20015;-53
2023/03/01 06:17:22;;;;;;;0.00;0.00;;;;;;;8.93;57.11;103016.84;7353347;19;21130;-54
2023/03/01 06:19:47;;;;;;;0.00;0.00;;;;;;;8.93;56.74;103022.06;7355879;19;20015;-56
2023/03/01 06:22:13;;;;;;;0.00;0.00;;;;;;;8.91;56.70;103022.84;7351657;19;20014;-54
2023/03/01 06:24:38;;;;;;;0.00;0.00;;;;;;;8.93;57.00;103027.25;7354804;19;20014;-55
2023/03/01 06:27:03;;;;;;;0.00;0.00;;;;;;;8.94;56.71;103031.63;7350772;19;20014;-55
2023/03/01 06:29:29;;;;;;;0.00;0.00;;;;;;;8.94;56.50;103031.63;7357350;19;20010;-56
2023/03/01 06:31:54;;;;;;;0.10;0.10;;;;;;;8.94;56.53;103033.34;7343954;19;20031;-55
2023/03/01 06:34:21;;;;;;;0.00;0.00;;;;;;;8.66;56.68;102985.84;7353507;19;20014;-55
2023/03/01 06:36:47;;;;;;;0.10;0.10;;;;;;;8.86;57.14;103021.88;7356264;19;20049;-56
2023/03/01 06:39:13;;;;;;;0.00;0.00;;;;;;;8.94;56.50;103033.34;7352281;19;20003;-55
2023/03/01 06:41:38;;;;;;;0.00;0.00;;;;;;;8.88;56.79;103020.19;7354560;19;20481;-55
2023/03/01 06:44:04;;;;;;;0.00;0.00;;;;;;;8.89;56.49;103020.22;7354626;19;20019;-55
2023/03/01 06:46:30;;;;;;;0.00;0.00;;;;;;;8.86;56.46;103021.88;7353796;19;20594;-56
2023/03/01 06:48:56;;;;;;;0.00;0.00;;;;;;;8.88;56.63;103026.28;7352774;19;20011;-55
2023/03/01 06:51:21;;;;;;;0.00;0.00;;;;;;;8.91;56.81;103028.94;7349809;19;20113;-56
2023/03/01 06:53:46;;;;;;;0.00;0.00;;;;;;;8.81;56.65;103011.34;7352168;19;20006;-56
2023/03/01 06:56:12;;;;;;;0.00;0.00;;;;;;;8.90;56.49;103032.41;7354980;19;20415;-55
2023/03/01 06:58:37;;;;;;;0.00;0.00;;;;;;;8.88;57.13;103028.91;7346632;19;20073;-54
2023/03/01 07:01:09;;;;;;;0.10;0.10;;;;;;;8.93;56.65;103036.81;7351296;19;20035;-56
2023/03/01 07:03:35;;;;;;;0.00;0.00;;;;;;;8.90;56.97;103031.53;7350451;19;20455;-56
2023/03/01 07:06:00;;;;;;;0.00;0.00;;;;;;;8.83;56.94;103025.31;7348116;19;20014;-56
2023/03/01 07:08:26;;;;;;;0.00;0.00;;;;;;;8.89;56.98;103034.97;7348372;19;20038;-54
2023/03/01 07:10:56;;;;;;;0.00;0.00;;;;;;;8.80;56.76;103017.41;7352200;19;20552;-55
2023/03/01 07:13:21;;;;;;;0.00;0.00;;;;;;;8.86;57.00;103030.56;7347098;19;20641;-54
2023/03/01 07:15:47;;;;;;;0.00;0.00;;;;;;;8.71;56.65;103009.38;7349592;19;20082;-54
2023/03/01 07:18:12;;;;;;;0.00;0.00;;;;;;;8.86;56.45;103033.16;7350844;19;20010;-56
2023/03/01 07:20:38;;;;;;;0.00;0.00;;;;;;;8.89;56.50;103040.19;7347918;19;20006;-55
2023/03/01 07:23:05;;;;;;;0.00;0.00;;;;;;;8.90;56.76;103045.44;7345071;19;20643;-54
2023/03/01 07:25:31;;;;;;;0.00;0.00;;;;;;;8.90;56.62;103041.94;7347819;19;20428;-57
2023/03/01 07:27:57;;;;;;;0.10;0.10;;;;;;;8.83;56.77;103035.72;7358974;19;20015;-54
2023/03/01 07:30:25;;;;;;;0.10;0.10;;;;;;;8.84;56.42;103033.16;7362198;19;20784;-56
2023/03/01 07:32:51;;;;;;;0.10;0.10;;;;;;;8.84;56.42;103033.16;7360761;19;20089;-56
2023/03/01 07:35:17;;;;;;;0.00;0.00;;;;;;;8.90;56.51;103040.22;7334859;19;20839;-55
2023/03/01 07:37:43;;;;;;;0.00;0.00;;;;;;;8.89;56.16;103041.06;7359136;19;20007;-56
2023/03/01 07:40:09;;;;;;;0.00;0.00;;;;;;;8.92;56.46;103046.38;7355609;19;20006;-55
2023/03/01 07:42:34;;;;;;;0.10;0.10;;;;;;;8.92;56.20;103041.16;7358759;19;20025;-56
2023/03/01 07:44:59;;;;;;;0.00;0.00;;;;;;;8.81;55.64;103019.16;7357026;19;20761;-55
2023/03/01 07:47:25;;;;;;;0.00;0.00;;;;;;;8.92;55.91;103038.53;7353060;19;20014;-57
2023/03/01 07:49:50;;;;;;;0.00;0.00;;;;;;;8.90;56.13;103040.22;7361102;19;20058;-55
2023/03/01 07:52:16;;;;;;;0.10;0.10;;;;;;;8.92;55.95;103029.81;7351115;19;20006;-53
2023/03/01 07:54:44;;;;;;;0.00;0.00;;;;;;;8.84;56.04;103019.25;7354096;19;20647;-55
2023/03/01 07:57:09;;;;;;;;;;;;;;;8.98;55.92;103041.28;7357227;19;21031;-56
2023/03/01 07:59:34;;;;;;;0.00;0.00;;;;;;;8.94;56.03;103044.66;7357388;19;19921;-56
2023/03/01 08:02:00;;;;;;;0.00;0.00;;;;;;;8.92;56.37;103040.25;7359475;19;20086;-55
2023/03/01 08:04:26;;;;;;;0.00;0.00;;;;;;;8.92;56.55;103035.94;7356203;19;20013;-52
2023/03/01 08:06:52;;;;;;;0.00;0.00;;;;;;;8.82;56.80;103023.56;7357954;19;20014;-54
2023/03/01 08:09:18;;;;;;;0.00;0.00;;;;;;;8.92;56.75;103043.75;7354118;19;20017;-56
2023/03/01 08:11:43;;;;;;;0.00;0.00;;;;;;;8.92;56.57;103045.44;7359598;19;20019;-55
2023/03/01 08:14:10;;;;;;;0.00;0.00;;;;;;;8.78;56.68;103016.50;7356506;19;20715;-55
2023/03/01 08:16:36;;;;;;;0.00;0.00;;;;;;;8.94;56.84;103049.00;7354889;19;20021;-56
2023/03/01 08:19:10;;;;;;;0.03;0.03;;;;;;;8.96;56.71;103045.56;7353455;19;20018;-55
2023/03/01 08:21:36;;;;;;;0.00;0.00;;;;;;;8.95;56.96;103046.41;7354624;19;20019;-55
2023/03/01 08:24:03;;;;;;;0.10;0.10;;;;;;;8.96;57.02;103042.06;7356950;19;21275;-55
2023/03/01 08:26:29;;;;;;;0.00;0.00;;;;;;;8.97;56.91;103044.72;7344857;19;20017;-55
2023/03/01 08:28:56;;;;;;;0.00;0.00;;;;;;;8.98;57.21;103036.06;7349694;19;20749;-57
2023/03/01 08:31:36;;;;;;;0.00;0.00;;;;;;;9.02;57.01;103048.31;7353557;19;21042;-56
2023/03/01 08:34:05;;;;;;;0.00;0.00;;;;;;;9.02;57.04;103044.81;7359631;19;20015;-54
2023/03/01 08:36:36;;;;;;;0.00;0.00;;;;;;;9.03;57.32;103044.84;7355672;19;20046;-55
2023/03/01 08:39:02;;;;;;;0.00;0.00;;;;;;;8.91;56.89;103018.50;7356750;19;20018;-55
2023/03/01 08:41:28;;;;;;;0.10;0.10;;;;;;;8.93;56.94;103026.38;7354537;19;20888;-55
2023/03/01 08:43:58;;;;;;;0.10;0.10;;;;;;;9.04;56.59;103044.00;7339024;19;20123;-54
2023/03/01 08:46:24;;;;;;;0.00;0.00;;;;;;;9.08;56.72;103040.63;7350678;19;20007;-52
2023/03/01 08:48:50;;;;;;;0.00;0.00;;;;;;;9.06;56.84;103050.13;7355974;19;20019;-54
2023/03/01 08:51:17;;;;;;;0.00;0.00;;;;;;;9.13;56.77;103051.16;7358243;19;20002;-54
2023/03/01 08:53:44;;;;;;;0.10;0.10;;;;;;;9.13;56.66;103055.47;7357378;19;20029;-56
2023/03/01 08:56:10;;;;;;;0.00;0.00;;;;;;;9.09;56.75;103057.13;7355865;19;20231;-54
2023/03/01 08:58:36;;;;;;;0.10;0.10;;;;;;;9.12;56.84;103043.28;7355885;19;20014;-55
2023/03/01 09:01:13;;;;;;;0.00;0.00;;;;;;;9.18;56.62;103064.28;7357910;19;20014;-55
2023/03/01 09:03:38;;;;;;;0.00;0.00;;;;;;;9.18;57.04;103064.28;7357264;19;20014;-55
2023/03/01 09:06:07;;;;;;;0.05;0.05;;;;;;;9.21;57.08;103064.31;7356762;19;20006;-54
2023/03/01 09:08:35;;;;;;;0.00;0.00;;;;;;;9.22;57.66;103060.88;7353718;19;20046;-55
2023/03/01 09:11:05;;;;;;;0.00;0.00;;;;;;;9.22;57.61;103053.03;7355669;19;20011;-55
2023/03/01 09:13:33;;;;;;;0.00;0.00;;;;;;;9.07;57.41;103041.47;7357726;19;20019;-56
2023/03/01 09:16:00;;;;;;;0.00;0.00;;;;;;;9.26;58.00;103067.91;7354664;19;20010;-55
2023/03/01 09:18:25;;;;;;;0.00;0.00;;;;;;;9.27;58.42;103059.22;7356989;19;20011;-56
2023/03/01 09:20:51;;;;;;;0.05;0.05;;;;;;;9.30;58.60;103054.09;7356837;19;25394;-55
2023/03/01 09:23:16;;;;;;;0.10;0.10;;;;;;;9.31;57.88;103048.91;7356006;19;20015;-55
2023/03/01 09:25:42;;;;;;;0.00;0.00;;;;;;;9.39;58.22;103056.88;7355672;19;20759;-55
2023/03/01 09:28:07;;;;;;;0.00;0.00;;;;;;;9.12;57.90;103007.66;7357615;19;20034;-56
2023/03/01 09:30:33;;;;;;;0.00;0.00;;;;;;;9.47;58.28;103052.69;7355530;19;20024;-54
2023/03/01 09:32:58;;;;;;;0.00;0.00;;;;;;;9.52;58.11;103060.59;7356262;19;20081;-55
2023/03/01 09:35:25;;;;;;;0.10;0.10;;;;;;;9.56;57.94;103063.31;7355418;19;20014;-55
2023/03/01 09:37:51;;;;;;;0.00;0.00;;;;;;;9.55;57.94;103053.72;7357529;19;20490;-55
2023/03/01 09:40:21;;;;;;;0.10;0.10;;;;;;;9.55;57.65;103056.34;7356375;19;20007;-56
2023/03/01 09:43:15;;;;;;;0.10;0.10;;;;;;;9.70;57.30;103071.41;7348099;19;20100;-54
2023/03/01 09:45:45;;;;;;;0.10;0.10;;;;;;;9.75;57.81;103063.66;7249422;19;2004404;-55
2023/03/01 09:48:16;;;;;;;0.10;0.10;;;;;;;9.90;58.16;103065.69;7353516;19;20018;-55
2023/03/01 09:50:46;;;;;;;0.00;0.00;;;;;;;10.03;58.18;103067.63;7352589;19;20101;-54
2023/03/01 09:53:37;;;;;;;0.10;0.10;;;;;;;10.26;57.85;103073.28;7357169;19;20010;-56
2023/03/01 09:56:32;;;;;;;0.00;0.00;;;;;;;10.39;58.13;103076.13;7356797;19;20006;-56
2023/03/01 09:59:13;;;;;;;0.00;0.00;;;;;;;10.53;57.34;103073.72;7253738;19;2004293;-55
2023/03/01 10:01:49;;;;;;;0.05;0.05;;;;;;;10.59;57.54;103068.63;7353435;19;20010;-56
2023/03/01 10:04:44;;;;;;;0.10;0.10;;;;;;;10.70;57.73;103065.28;7354255;19;20716;-55
2023/03/01 10:07:32;;;;;;;0.10;0.10;;;;;;;10.76;58.08;103053.16;7252443;19;2004327;-55
2023/03/01 10:09:58;;;;;;;0.00;0.00;;;;;;;10.84;58.35;103053.25;7253785;19;2004501;-56
2023/03/01 10:12:30;;;;;;;0.00;0.00;;;;;;;11.01;58.26;103058.75;7352414;19;20010;-55
2023/03/01 10:15:10;;;;;;;0.00;0.00;;;;;;;11.16;57.48;103048.47;7356835;19;20668;-56
2023/03/01 10:17:53;;;;;;;0.10;0.10;;;;;;;11.24;57.12;103049.44;7349491;19;20021;-56
2023/03/01 10:20:19;;;;;;;0.00;0.00;;;;;;;11.29;57.36;103046.88;7356181;19;20006;-55
2023/03/01 10:22:50;;;;;;;0.08;0.08;;;;;;;11.35;56.74;103047.84;7354902;19;20010;-56
2023/03/01 10:25:20;;;;;;;0.00;0.00;;;;;;;11.47;56.77;103047.09;7356851;19;20002;-56
2023/03/01 10:27:54;;;;;;;0.00;0.00;;;;;;;11.68;57.41;103051.69;7351355;19;20010;-54
2023/03/01 10:30:34;;;;;;;0.05;0.05;;;;;;;11.98;57.36;103053.75;7355298;19;20012;-56
2023/03/01 10:33:00;;;;;;;0.10;0.10;;;;;;;12.25;56.58;103044.38;7351766;19;20514;-55
2023/03/01 10:35:29;;;;;;;0.00;0.00;;;;;;;12.64;56.17;103044.66;7353392;19;20013;-56
2023/03/01 10:38:06;;;;;;;0.00;0.00;;;;;;;13.04;56.17;103037.00;7350327;19;20002;-56
2023/03/01 10:40:34;;;;;;;0.00;0.00;;;;;;;13.28;54.08;103035.34;7354691;19;20006;-55
2023/03/01 10:43:03;;;;;;;0.00;0.00;;;;;;;13.51;54.03;103031.06;7349845;19;20430;-55
2023/03/01 10:45:34;;;;;;;0.00;0.00;;;;;;;13.70;53.56;103027.59;7351637;19;20006;-55
2023/03/01 10:48:26;;;;;;;0.00;0.00;;;;;;;13.84;54.15;103026.72;7354391;19;20011;-56
2023/03/01 10:51:16;;;;;;;0.00;0.00;;;;;;;14.11;54.92;103029.38;7249790;19;2004410;-55
2023/03/01 10:53:47;;;;;;;0.00;0.00;;;;;;;14.25;53.88;103016.25;7250001;19;2004434;-56
2023/03/01 10:56:15;;;;;;;0.00;0.00;;;;;;;14.23;52.86;102974.19;7352499;19;20048;-56
2023/03/01 10:58:59;;;;;;;0.00;0.00;;;;;;;14.81;53.94;103006.53;7352002;19;20015;-57
2023/03/01 11:01:28;;;;;;;0.00;0.00;;;;;;;14.97;52.68;103002.94;7353002;19;20022;-55
2023/03/01 11:04:03;;;;;;;0.10;0.10;;;;;;;15.29;52.99;103005.41;7358476;19;20034;-57
2023/03/01 11:06:28;;;;;;;0.10;0.10;;;;;;;15.36;51.42;102990.44;7361429;19;20007;-56
2023/03/01 11:08:54;;;;;;;0.00;0.00;;;;;;;15.74;50.85;103009.53;7359276;19;20709;-55
2023/03/01 11:11:34;;;;;;;0.10;0.10;;;;;;;16.07;50.53;103002.25;7360442;19;20010;-56
2023/03/01 11:14:22;;;;;;;0.00;0.00;;;;;;;16.25;50.94;102990.66;7359431;19;20007;-57
2023/03/01 11:16:59;;;;;;;0.08;0.08;;;;;;;16.44;49.96;103002.78;7358527;19;20011;-56
2023/03/01 11:19:24;;;;;;;0.00;0.00;;;;;;;16.38;48.49;102996.69;7357270;19;20516;-56
2023/03/01 11:22:07;;;;;;;0.00;0.00;;;;;;;16.49;48.78;102995.69;7358976;19;20089;-55
2023/03/01 11:24:46;;;;;;;0.00;0.00;;;;;;;16.45;48.31;102993.09;7361066;19;20050;-56
2023/03/01 11:27:34;;;;;;;0.00;0.00;;;;;;;16.35;47.77;102992.31;7357287;19;20006;-55
2023/03/01 11:30:05;;;;;;;0.10;0.10;;;;;;;16.19;46.78;102991.59;7360631;19;20584;-55
2023/03/01 11:32:42;;;;;;;0.03;0.03;;;;;;;16.11;47.58;102985.50;7357317;19;20050;-56
2023/03/01 11:35:26;;;;;;;0.10;0.10;;;;;;;16.01;47.89;102986.47;7353595;19;20003;-55
2023/03/01 11:38:16;;;;;;;0.00;0.00;;;;;;;15.90;47.78;102988.34;7358204;19;20123;-56
2023/03/01 11:41:05;;;;;;;0.10;0.10;;;;;;;15.71;47.46;102977.97;7357075;19;20006;-55
2023/03/01 11:43:49;;;;;;;0.10;0.10;;;;;;;15.58;47.19;102981.53;7357189;19;20010;-54